KMRJ

Iowa County Airport

Mineral Point, Wisconsin, USA
METAR KMRJ 161535Z AUTO 28010KT 7SM OVC004 02/02 A2993 RMK AO2
Observed Flight Rules
Nov-16 @ 15:35 UTC (29 minutes ago) Instrument Flight Rules
Wind Visibility Clouds
280° at 10 knots 7 miles
  • Overcast at 400' AGL
Temperatures Readings
Current 2°C / 36°F
Dewpoint 2°C / 36°F
Humidity 100%
Altimeter 29.93" Hg
Pressure 1014 hPa
Elevation 359
METAR KMRJ 161535Z AUTO 28010KT 7SM OVC004 02/02 A2993 RMK AO2
Observed Flight Rules
Nov-16 @ 15:35 UTC
(29 minutes ago)
LIFR
Wind Visibility
280° at 10 knots 7 miles
Clouds
  • Overcast at 400' AGL
Temperature Dewpoint
2°C / 36°F 2°C / 36°F
Humidity Altimeter Pressure
100% 29.93" Hg 1014 hPa